createdAt,value
2018-02-19T00:00:59.754Z,50.10
2018-02-19T00:02:04.726Z,50.10
2018-02-19T00:03:09.516Z,50.10
2018-02-19T00:04:14.326Z,50.10
2018-02-19T00:05:19.431Z,50.10
2018-02-19T00:06:24.238Z,50.10
2018-02-19T00:07:29.024Z,50.10
2018-02-19T00:08:34.006Z,50.10
2018-02-19T00:09:38.792Z,50.10
2018-02-19T00:10:43.568Z,50.70
2018-02-19T00:11:48.576Z,50.70
2018-02-19T00:12:53.528Z,50.10
2018-02-19T00:13:58.517Z,50.10
2018-02-19T00:15:03.314Z,50.10
2018-02-19T00:16:08.277Z,50.10
2018-02-19T00:17:13.099Z,50.10
2018-02-19T00:18:18.072Z,50.10
2018-02-19T00:19:23.064Z,50.10
2018-02-19T00:20:28.014Z,50.10
2018-02-19T00:21:32.955Z,50.10
2018-02-19T00:22:38.463Z,50.10
2018-02-19T00:23:43.407Z,50.10
2018-02-19T00:24:48.305Z,50.10
2018-02-19T00:25:53.102Z,50.00
2018-02-19T00:26:57.922Z,50.10
2018-02-19T00:28:02.872Z,50.10
2018-02-19T00:29:07.713Z,50.00
2018-02-19T00:30:12.459Z,50.00
2018-02-19T00:31:17.296Z,50.10
2018-02-19T00:32:22.221Z,50.00
2018-02-19T00:33:27.137Z,50.10
2018-02-19T00:34:31.850Z,50.00
2018-02-19T00:35:36.557Z,50.00
2018-02-19T00:36:41.322Z,50.00
2018-02-19T00:37:46.151Z,50.00
2018-02-19T00:38:51.079Z,50.00
2018-02-19T00:39:55.844Z,50.00
2018-02-19T00:41:00.616Z,50.00
2018-02-19T00:42:05.582Z,50.00
2018-02-19T00:43:10.498Z,50.00
2018-02-19T00:44:15.250Z,50.00
2018-02-19T00:45:20.150Z,50.00
2018-02-19T00:46:25.093Z,50.00
2018-02-19T00:47:29.947Z,49.90
2018-02-19T00:48:34.871Z,49.90
2018-02-19T00:49:39.782Z,49.90
2018-02-19T00:50:44.612Z,50.00
2018-02-19T00:51:49.537Z,49.90
2018-02-19T00:52:54.343Z,50.00
2018-02-19T00:53:59.210Z,50.00
2018-02-19T00:55:03.974Z,49.90
2018-02-19T00:56:08.680Z,49.90
2018-02-19T00:57:13.461Z,49.90
2018-02-19T00:58:18.379Z,49.90
2018-02-19T00:59:23.262Z,50.00
2018-02-19T01:00:28.224Z,50.00
2018-02-19T01:01:33.130Z,50.00
2018-02-19T01:02:37.970Z,50.00
2018-02-19T01:03:42.766Z,49.90
2018-02-19T01:04:47.669Z,49.90
2018-02-19T01:05:52.587Z,49.90
2018-02-19T01:06:57.371Z,49.90
2018-02-19T01:08:02.163Z,49.90
2018-02-19T01:09:07.023Z,49.90
2018-02-19T01:10:11.946Z,49.90
2018-02-19T01:11:16.678Z,49.90
2018-02-19T01:12:21.599Z,49.90
2018-02-19T01:13:26.508Z,49.90
2018-02-19T01:14:31.418Z,49.90
2018-02-19T01:15:36.238Z,50.00
2018-02-19T01:16:41.124Z,50.00
2018-02-19T01:17:45.924Z,49.90
2018-02-19T01:18:50.884Z,49.90
2018-02-19T01:19:55.683Z,49.90
2018-02-19T01:21:00.605Z,49.90
2018-02-19T01:22:05.335Z,49.90
2018-02-19T01:23:10.167Z,49.90
2018-02-19T01:24:15.058Z,49.90
2018-02-19T01:25:19.890Z,49.90
2018-02-19T01:26:24.795Z,49.90
2018-02-19T01:27:29.715Z,49.90
2018-02-19T01:28:34.513Z,49.90
2018-02-19T01:29:39.530Z,49.90
2018-02-19T01:30:44.454Z,49.90
2018-02-19T01:31:49.222Z,49.90
2018-02-19T01:32:54.124Z,49.80
2018-02-19T01:33:58.893Z,49.80
2018-02-19T01:35:03.640Z,49.80
2018-02-19T01:36:08.593Z,49.80
2018-02-19T01:37:13.460Z,49.90
2018-02-19T01:38:18.336Z,49.90
2018-02-19T01:39:23.092Z,49.80
2018-02-19T01:40:27.862Z,49.80
2018-02-19T01:41:32.828Z,49.90
2018-02-19T01:42:37.652Z,49.80
2018-02-19T01:43:42.440Z,49.80
2018-02-19T01:44:47.157Z,49.80
2018-02-19T01:45:52.017Z,49.80
2018-02-19T01:46:56.913Z,49.80
2018-02-19T01:48:01.809Z,49.80
2018-02-19T01:49:06.510Z,49.80
2018-02-19T01:50:11.390Z,49.80
2018-02-19T01:51:16.271Z,49.80
2018-02-19T01:52:21.024Z,49.90
2018-02-19T01:53:25.807Z,49.80
2018-02-19T01:54:30.726Z,49.90
2018-02-19T01:55:35.479Z,49.80
2018-02-19T01:56:40.315Z,49.80
2018-02-19T01:57:45.217Z,49.70
2018-02-19T01:58:50.110Z,49.90
2018-02-19T01:59:55.088Z,49.80
2018-02-19T02:00:59.968Z,49.90
2018-02-19T02:02:04.792Z,49.90
2018-02-19T02:03:09.538Z,49.80
2018-02-19T02:04:14.408Z,49.80
2018-02-19T02:05:19.143Z,49.80
2018-02-19T02:06:24.877Z,49.80
2018-02-19T02:07:29.625Z,49.70
2018-02-19T02:08:34.500Z,49.70
2018-02-19T02:09:39.277Z,49.80
2018-02-19T02:10:44.158Z,49.70
2018-02-19T02:11:48.924Z,49.80
2018-02-19T02:12:53.723Z,49.70
2018-02-19T02:13:58.595Z,49.80
2018-02-19T02:15:03.347Z,49.80
2018-02-19T02:16:08.167Z,49.80
2018-02-19T02:17:13.116Z,49.70
2018-02-19T02:18:17.857Z,49.80
2018-02-19T02:19:22.772Z,49.80
2018-02-19T02:20:27.518Z,50.00
2018-02-19T02:21:32.431Z,50.40
2018-02-19T02:22:37.283Z,49.70
2018-02-19T02:23:42.229Z,49.70
2018-02-19T02:24:46.946Z,49.60
2018-02-19T02:25:52.359Z,49.70
2018-02-19T02:26:57.208Z,49.60
2018-02-19T02:28:02.168Z,49.60
2018-02-19T02:29:07.024Z,49.70
2018-02-19T02:30:11.913Z,49.70
2018-02-19T02:31:16.690Z,49.70
2018-02-19T02:32:21.613Z,49.80
2018-02-19T02:33:26.415Z,49.60
2018-02-19T02:34:31.212Z,49.60
2018-02-19T02:35:36.134Z,49.60
2018-02-19T02:36:41.022Z,49.60
2018-02-19T02:37:45.800Z,49.70
2018-02-19T02:38:50.772Z,49.70
2018-02-19T02:39:55.624Z,49.60
2018-02-19T02:41:00.501Z,49.60
2018-02-19T02:42:05.468Z,49.70
2018-02-19T02:43:10.364Z,49.70
2018-02-19T02:44:15.225Z,49.60
2018-02-19T02:45:20.144Z,49.60
2018-02-19T02:46:24.930Z,49.60
2018-02-19T02:47:29.806Z,49.60
2018-02-19T02:48:34.618Z,49.60
2018-02-19T02:49:39.377Z,49.60
2018-02-19T02:50:44.273Z,49.60
2018-02-19T02:51:49.067Z,49.60
2018-02-19T02:52:53.932Z,49.70
2018-02-19T02:53:58.814Z,49.60
2018-02-19T02:55:03.733Z,49.60
2018-02-19T02:56:08.682Z,49.60
2018-02-19T02:57:13.618Z,49.60
2018-02-19T02:58:18.353Z,50.30
2018-02-19T02:59:23.083Z,49.60
2018-02-19T03:00:28.001Z,49.60
2018-02-19T03:01:32.911Z,49.60
2018-02-19T03:02:37.710Z,49.60
2018-02-19T03:03:42.480Z,49.60
2018-02-19T03:04:47.324Z,49.60
2018-02-19T03:05:52.095Z,49.60
2018-02-19T03:06:56.970Z,49.60
2018-02-19T03:08:01.921Z,49.60
2018-02-19T03:09:06.884Z,49.60
2018-02-19T03:10:11.602Z,49.50
2018-02-19T03:11:16.497Z,49.60
2018-02-19T03:12:21.191Z,49.60
2018-02-19T03:13:25.944Z,49.60
2018-02-19T03:14:30.695Z,49.60
2018-02-19T03:15:35.512Z,49.60
2018-02-19T03:16:40.479Z,49.60
2018-02-19T03:17:45.441Z,49.60
2018-02-19T03:18:50.196Z,49.60
2018-02-19T03:19:55.018Z,49.60
2018-02-19T03:20:59.967Z,49.60
2018-02-19T03:22:04.739Z,49.60
2018-02-19T03:23:09.531Z,49.60
2018-02-19T03:24:14.410Z,49.60
2018-02-19T03:25:19.194Z,49.60
2018-02-19T03:26:24.138Z,49.60
2018-02-19T03:27:29.020Z,49.60
2018-02-19T03:28:33.934Z,49.60
2018-02-19T03:29:38.730Z,49.60
2018-02-19T03:30:43.580Z,49.60
2018-02-19T03:31:48.423Z,49.60
2018-02-19T03:32:53.193Z,49.60
2018-02-19T03:33:57.953Z,49.60
2018-02-19T03:35:02.725Z,49.60
2018-02-19T03:36:07.716Z,49.60
2018-02-19T03:37:12.567Z,49.60
2018-02-19T03:38:17.490Z,49.60
2018-02-19T03:39:22.380Z,49.60
2018-02-19T03:40:27.089Z,49.60
2018-02-19T03:41:31.993Z,49.60
2018-02-19T03:42:36.913Z,49.60
2018-02-19T03:43:41.853Z,49.60
2018-02-19T03:44:46.702Z,49.60
2018-02-19T03:45:51.388Z,49.60
2018-02-19T03:46:56.215Z,49.60
2018-02-19T03:48:01.167Z,49.60
2018-02-19T03:49:05.917Z,49.60
2018-02-19T03:50:10.812Z,49.60
2018-02-19T03:51:15.580Z,49.60
2018-02-19T03:52:20.552Z,49.60
2018-02-19T03:53:25.462Z,49.60
2018-02-19T03:54:30.395Z,49.60
2018-02-19T03:55:35.353Z,49.60
2018-02-19T03:56:40.080Z,49.60
2018-02-19T03:57:44.967Z,49.60
2018-02-19T03:58:49.850Z,49.60
2018-02-19T03:59:54.815Z,49.60
2018-02-19T04:00:59.555Z,49.60
2018-02-19T04:02:04.332Z,49.60
2018-02-19T04:03:09.316Z,49.60
2018-02-19T04:04:14.240Z,49.60
2018-02-19T04:05:18.987Z,49.60
2018-02-19T04:06:23.806Z,49.60
2018-02-19T04:07:28.654Z,49.50
2018-02-19T04:08:33.517Z,49.60
2018-02-19T04:09:38.270Z,49.50
2018-02-19T04:10:43.201Z,49.50
2018-02-19T04:11:48.119Z,49.50
2018-02-19T04:12:52.967Z,49.60
2018-02-19T04:13:57.697Z,49.60
2018-02-19T04:15:02.634Z,49.50
2018-02-19T04:16:07.582Z,49.50
2018-02-19T04:17:12.361Z,49.60
2018-02-19T04:18:17.105Z,49.60
2018-02-19T04:19:21.953Z,49.60
2018-02-19T04:20:26.744Z,49.60
2018-02-19T04:21:31.668Z,49.50
2018-02-19T04:22:36.399Z,49.50
2018-02-19T04:23:41.306Z,49.60
2018-02-19T04:24:46.084Z,49.60
2018-02-19T04:25:51.023Z,49.50
2018-02-19T04:26:56.000Z,49.50
2018-02-19T04:28:00.766Z,49.50
2018-02-19T04:29:05.602Z,49.50
2018-02-19T04:30:10.396Z,49.60
2018-02-19T04:31:15.436Z,49.50
2018-02-19T04:32:20.392Z,49.60
2018-02-19T04:33:25.192Z,49.50
2018-02-19T04:34:29.988Z,49.50
2018-02-19T04:35:34.774Z,49.50
2018-02-19T04:36:39.666Z,49.60
2018-02-19T04:37:44.572Z,49.60
2018-02-19T04:38:49.423Z,49.60
2018-02-19T04:39:54.296Z,49.50
2018-02-19T04:40:59.176Z,49.50
2018-02-19T04:42:03.986Z,49.50
2018-02-19T04:43:08.850Z,49.50
2018-02-19T04:44:13.740Z,49.60
2018-02-19T04:45:18.685Z,49.50
2018-02-19T04:46:23.487Z,49.60
2018-02-19T04:47:31.050Z,49.50
2018-02-19T04:48:35.845Z,49.50
2018-02-19T04:49:40.564Z,49.50
2018-02-19T04:50:45.425Z,49.50
2018-02-19T04:51:50.140Z,49.50
2018-02-19T04:52:55.024Z,49.50
2018-02-19T04:53:59.926Z,49.60
2018-02-19T04:55:04.915Z,49.50
2018-02-19T04:56:09.892Z,49.50
2018-02-19T04:57:14.682Z,49.50
2018-02-19T04:58:19.432Z,49.40
2018-02-19T04:59:24.397Z,49.50
2018-02-19T05:00:29.222Z,49.50
2018-02-19T05:01:33.963Z,50.20
2018-02-19T05:02:38.812Z,49.60
2018-02-19T05:03:43.665Z,49.50
2018-02-19T05:04:48.434Z,49.50
2018-02-19T05:05:53.358Z,49.50
2018-02-19T05:06:58.144Z,49.50
2018-02-19T05:08:03.027Z,50.20
2018-02-19T05:09:07.919Z,49.60
2018-02-19T05:10:12.712Z,49.40
2018-02-19T05:11:17.459Z,49.40
2018-02-19T05:12:22.309Z,49.60
2018-02-19T05:13:27.264Z,49.50
2018-02-19T05:14:32.250Z,49.50
2018-02-19T05:15:37.173Z,49.40
2018-02-19T05:16:41.962Z,49.50
2018-02-19T05:17:46.705Z,49.50
2018-02-19T05:18:51.588Z,49.50
2018-02-19T05:19:56.502Z,49.50
2018-02-19T05:21:01.286Z,49.50
2018-02-19T05:22:06.234Z,49.50
2018-02-19T05:23:12.133Z,49.50
2018-02-19T05:24:17.260Z,49.50
2018-02-19T05:25:22.254Z,49.50
2018-02-19T05:26:27.164Z,49.40
2018-02-19T05:27:31.931Z,49.50
2018-02-19T05:28:36.904Z,49.40
2018-02-19T05:29:41.717Z,49.60
2018-02-19T05:30:46.623Z,49.40
2018-02-19T05:31:51.517Z,49.60
2018-02-19T05:32:56.427Z,49.50
2018-02-19T05:34:01.323Z,49.50
2018-02-19T05:35:06.262Z,49.50
2018-02-19T05:36:11.152Z,49.40
2018-02-19T05:37:15.887Z,49.50
2018-02-19T05:38:20.631Z,50.20
2018-02-19T05:39:25.523Z,49.40
2018-02-19T05:40:30.548Z,49.40
2018-02-19T05:41:35.599Z,49.50
2018-02-19T05:42:40.318Z,49.40
2018-02-19T05:43:45.212Z,49.40
2018-02-19T05:44:50.066Z,49.30
2018-02-19T05:45:55.572Z,49.40
2018-02-19T05:47:00.552Z,49.40
2018-02-19T05:48:06.267Z,49.40
2018-02-19T05:49:11.946Z,49.30
2018-02-19T05:50:18.260Z,49.40
2018-02-19T05:51:25.658Z,49.30
2018-02-19T05:52:31.335Z,49.40
2018-02-19T05:53:36.270Z,49.40
2018-02-19T05:54:41.583Z,49.40
2018-02-19T05:55:47.668Z,49.40
2018-02-19T05:56:52.573Z,49.40
2018-02-19T05:57:57.407Z,49.40
2018-02-19T05:59:02.189Z,49.40
2018-02-19T06:00:06.971Z,49.30
2018-02-19T06:01:11.793Z,49.30
2018-02-19T06:02:16.617Z,50.00
2018-02-19T06:03:21.376Z,49.40
2018-02-19T06:04:26.330Z,49.40
2018-02-19T06:05:31.049Z,49.40
2018-02-19T06:06:35.849Z,49.40
2018-02-19T06:07:40.559Z,49.40
2018-02-19T06:08:45.586Z,49.40
2018-02-19T06:09:50.436Z,49.40
2018-02-19T06:10:55.287Z,49.40
2018-02-19T06:12:00.004Z,49.30
2018-02-19T06:13:04.886Z,49.40
2018-02-19T06:14:09.810Z,49.40
2018-02-19T06:15:14.587Z,49.30
2018-02-19T06:16:19.341Z,49.40
2018-02-19T06:17:24.251Z,49.30
2018-02-19T06:18:29.238Z,49.30
2018-02-19T06:19:34.304Z,49.40
2018-02-19T06:20:39.926Z,49.40
2018-02-19T06:21:44.747Z,49.40
2018-02-19T06:22:49.474Z,49.30
2018-02-19T06:23:54.258Z,49.30
2018-02-19T06:24:59.047Z,49.20
2018-02-19T06:26:03.819Z,49.30
2018-02-19T06:27:08.773Z,49.20
2018-02-19T06:28:13.517Z,49.20
2018-02-19T06:29:18.278Z,49.20
2018-02-19T06:30:23.211Z,49.20
2018-02-19T06:31:28.004Z,49.30
2018-02-19T06:32:32.725Z,49.30
2018-02-19T06:33:37.559Z,49.20
2018-02-19T06:34:42.470Z,49.30
2018-02-19T06:35:47.751Z,49.30
2018-02-19T06:36:52.516Z,49.30
2018-02-19T06:37:57.230Z,49.30
2018-02-19T06:39:02.025Z,49.30
2018-02-19T06:40:06.848Z,49.30
2018-02-19T06:41:11.668Z,49.30
2018-02-19T06:42:16.504Z,49.30
2018-02-19T06:43:21.418Z,49.30
2018-02-19T06:44:26.278Z,49.30
2018-02-19T06:45:31.189Z,49.30
2018-02-19T06:46:36.145Z,49.30
2018-02-19T06:47:41.063Z,49.30
2018-02-19T06:48:46.022Z,49.30
2018-02-19T06:49:50.794Z,49.30
2018-02-19T06:50:55.706Z,49.30
2018-02-19T06:52:00.692Z,49.30
2018-02-19T06:53:05.616Z,49.30
2018-02-19T06:54:10.554Z,49.30
2018-02-19T06:55:15.289Z,49.30
2018-02-19T06:56:20.215Z,49.30
2018-02-19T06:57:24.995Z,49.30
2018-02-19T06:58:29.747Z,49.30
2018-02-19T06:59:34.515Z,49.30
2018-02-19T07:00:39.410Z,49.20
2018-02-19T07:01:44.301Z,49.30
2018-02-19T07:02:49.270Z,49.20
2018-02-19T07:03:54.121Z,49.30
2018-02-19T07:04:58.906Z,49.20
2018-02-19T07:06:03.738Z,49.30
2018-02-19T07:07:08.500Z,49.30
2018-02-19T07:08:13.286Z,49.30
2018-02-19T07:09:18.033Z,49.30
2018-02-19T07:10:22.829Z,49.20
2018-02-19T07:11:27.570Z,49.20
2018-02-19T07:12:32.287Z,49.30
2018-02-19T07:13:37.173Z,49.20
2018-02-19T07:14:42.062Z,49.30
2018-02-19T07:15:46.802Z,49.30
2018-02-19T07:16:51.596Z,49.30
2018-02-19T07:17:56.324Z,49.30
2018-02-19T07:19:01.259Z,49.20
2018-02-19T07:20:06.055Z,49.30
2018-02-19T07:21:10.837Z,49.30
2018-02-19T07:22:15.591Z,49.90
2018-02-19T07:23:20.318Z,49.30
2018-02-19T07:24:25.101Z,49.30
2018-02-19T07:25:32.807Z,49.30
2018-02-19T07:26:37.532Z,49.30
2018-02-19T07:27:42.238Z,49.30
2018-02-19T07:28:47.109Z,49.30
2018-02-19T07:29:51.916Z,49.30
2018-02-19T07:30:56.863Z,49.20
2018-02-19T07:32:01.651Z,49.30
2018-02-19T07:33:06.561Z,49.30
2018-02-19T07:34:11.393Z,49.20
2018-02-19T07:35:16.302Z,49.30
2018-02-19T07:36:21.215Z,49.20
2018-02-19T07:37:26.002Z,49.20
2018-02-19T07:38:30.760Z,49.20
2018-02-19T07:39:35.535Z,49.30
2018-02-19T07:40:40.594Z,49.20
2018-02-19T07:41:45.399Z,49.30
2018-02-19T07:42:50.187Z,49.30
2018-02-19T07:43:55.120Z,49.20
2018-02-19T07:45:00.081Z,49.30
2018-02-19T07:46:04.821Z,49.30
2018-02-19T07:47:09.604Z,49.30
2018-02-19T07:48:14.511Z,49.20
2018-02-19T07:49:19.334Z,49.30
2018-02-19T07:50:24.343Z,49.30
2018-02-19T07:51:29.314Z,49.20
2018-02-19T07:52:34.205Z,49.30
2018-02-19T07:53:39.097Z,49.20
2018-02-19T07:54:43.937Z,49.20
2018-02-19T07:55:48.870Z,49.20
2018-02-19T07:56:53.791Z,49.30
2018-02-19T07:57:58.561Z,49.20
2018-02-19T07:59:03.477Z,49.30
2018-02-19T08:00:08.490Z,49.20
2018-02-19T08:01:13.406Z,49.30
2018-02-19T08:02:18.311Z,49.20
2018-02-19T08:03:23.167Z,49.30
2018-02-19T08:04:27.917Z,49.30
2018-02-19T08:05:32.751Z,49.20
2018-02-19T08:06:37.655Z,49.20
2018-02-19T08:07:42.634Z,49.20
2018-02-19T08:08:47.564Z,49.20
2018-02-19T08:09:52.447Z,49.20
2018-02-19T08:10:57.653Z,49.20
2018-02-19T08:12:02.519Z,49.20
2018-02-19T08:13:07.334Z,49.20
2018-02-19T08:14:12.681Z,49.20
2018-02-19T08:15:17.632Z,49.20
2018-02-19T08:16:22.482Z,49.20
2018-02-19T08:17:27.323Z,49.30
2018-02-19T08:18:32.218Z,49.20
2018-02-19T08:19:37.071Z,49.20
2018-02-19T08:20:41.860Z,49.20
2018-02-19T08:21:46.626Z,49.30
2018-02-19T08:22:51.370Z,49.30
2018-02-19T08:23:56.202Z,49.20
2018-02-19T08:25:00.982Z,49.20
2018-02-19T08:26:05.729Z,49.20
2018-02-19T08:27:10.686Z,49.20
2018-02-19T08:28:15.549Z,49.20
2018-02-19T08:29:20.382Z,49.20
2018-02-19T08:30:25.131Z,49.30
2018-02-19T08:31:29.850Z,49.20
2018-02-19T08:32:34.797Z,49.20
2018-02-19T08:33:39.630Z,49.30
2018-02-19T08:34:44.410Z,49.20
2018-02-19T08:35:49.213Z,49.30
2018-02-19T08:36:54.330Z,49.20
2018-02-19T08:37:59.397Z,49.30
2018-02-19T08:39:04.348Z,49.30
2018-02-19T08:40:09.312Z,49.30
2018-02-19T08:41:14.196Z,49.20
2018-02-19T08:42:19.084Z,49.30
2018-02-19T08:43:23.836Z,49.20
2018-02-19T08:44:28.742Z,49.20
2018-02-19T08:45:33.495Z,49.20
2018-02-19T08:46:38.257Z,49.20
2018-02-19T08:47:43.157Z,49.30
2018-02-19T08:48:47.908Z,49.20
2018-02-19T08:49:52.671Z,49.30
2018-02-19T08:50:57.662Z,49.30
2018-02-19T08:52:02.893Z,49.20
2018-02-19T08:53:07.863Z,49.30
2018-02-19T08:54:12.701Z,49.30
2018-02-19T08:55:17.416Z,49.30
2018-02-19T08:56:22.345Z,49.30
2018-02-19T08:57:27.103Z,49.30
2018-02-19T08:58:31.844Z,49.30
2018-02-19T08:59:36.703Z,49.30
2018-02-19T09:00:41.446Z,49.40
2018-02-19T09:01:46.341Z,49.30
2018-02-19T09:02:51.275Z,49.30
2018-02-19T09:03:56.020Z,49.30
2018-02-19T09:05:00.971Z,49.30
2018-02-19T09:06:05.765Z,49.40
2018-02-19T09:07:10.522Z,49.40
2018-02-19T09:08:15.296Z,49.40
2018-02-19T09:09:20.153Z,49.40
2018-02-19T09:10:24.937Z,49.40
2018-02-19T09:11:29.866Z,49.30
2018-02-19T09:12:34.783Z,49.40
2018-02-19T09:13:39.543Z,49.40
2018-02-19T09:14:44.464Z,49.40
2018-02-19T09:15:49.336Z,49.40
2018-02-19T09:16:54.065Z,49.40
2018-02-19T09:17:58.975Z,49.50
2018-02-19T09:19:03.730Z,49.40
2018-02-19T09:20:08.624Z,49.50
2018-02-19T09:21:13.548Z,49.50
2018-02-19T09:22:18.445Z,49.50
2018-02-19T09:23:23.283Z,49.50
2018-02-19T09:24:28.156Z,49.60
2018-02-19T09:25:33.090Z,49.60
2018-02-19T09:26:38.037Z,49.60
2018-02-19T09:27:42.857Z,49.60
2018-02-19T09:28:47.672Z,49.60
2018-02-19T09:29:52.475Z,49.60
2018-02-19T09:30:57.355Z,49.60
2018-02-19T09:32:02.173Z,49.60
2018-02-19T09:33:06.964Z,50.20
2018-02-19T09:34:11.859Z,49.50
2018-02-19T09:35:16.600Z,49.60
2018-02-19T09:36:21.355Z,49.50
2018-02-19T09:37:26.160Z,49.60
2018-02-19T09:38:31.079Z,49.60
2018-02-19T09:39:35.986Z,49.60
2018-02-19T09:40:40.740Z,49.50
2018-02-19T09:41:45.685Z,49.50
2018-02-19T09:42:50.506Z,49.50
2018-02-19T09:43:55.404Z,49.50
2018-02-19T09:45:00.188Z,49.50
2018-02-19T09:46:04.954Z,49.40
2018-02-19T09:47:09.757Z,49.50
2018-02-19T09:48:14.657Z,49.50
2018-02-19T09:49:19.402Z,49.50
2018-02-19T09:50:24.210Z,49.50
2018-02-19T09:51:29.133Z,49.60
2018-02-19T09:52:33.902Z,49.60
2018-02-19T09:53:38.655Z,49.60
2018-02-19T09:54:43.579Z,49.60
2018-02-19T09:55:48.425Z,49.70
2018-02-19T09:56:53.298Z,49.70
2018-02-19T09:57:58.203Z,49.70
2018-02-19T09:59:03.160Z,49.70
2018-02-19T10:00:08.036Z,49.70
2018-02-19T10:01:12.963Z,49.70
2018-02-19T10:02:17.716Z,49.70
2018-02-19T10:03:22.602Z,49.70
2018-02-19T10:04:27.482Z,49.70
2018-02-19T10:05:32.234Z,49.60
2018-02-19T10:06:37.160Z,49.60
2018-02-19T10:07:41.947Z,49.60
2018-02-19T10:08:46.912Z,49.60
2018-02-19T10:09:51.816Z,49.60
2018-02-19T10:10:56.593Z,49.60
2018-02-19T10:12:01.324Z,49.60
2018-02-19T10:13:06.279Z,49.60
2018-02-19T10:14:11.136Z,49.50
2018-02-19T10:15:16.004Z,49.60
2018-02-19T10:16:20.749Z,49.50
2018-02-19T10:17:25.698Z,49.60
2018-02-19T10:18:30.574Z,49.60
2018-02-19T10:19:35.407Z,49.60
2018-02-19T10:20:40.179Z,49.60
2018-02-19T10:21:45.035Z,49.60
2018-02-19T10:22:49.900Z,49.60
2018-02-19T10:23:54.653Z,49.60
2018-02-19T10:24:59.400Z,49.60
2018-02-19T10:26:04.327Z,49.60
2018-02-19T10:27:09.125Z,49.60
2018-02-19T10:28:13.997Z,49.60
2018-02-19T10:29:18.889Z,49.60
2018-02-19T10:30:23.823Z,49.60
2018-02-19T10:31:28.721Z,49.60
2018-02-19T10:32:33.467Z,49.60
2018-02-19T10:33:38.404Z,49.60
2018-02-19T10:34:43.155Z,49.60
2018-02-19T10:35:47.878Z,49.60
2018-02-19T10:36:52.802Z,49.70
2018-02-19T10:37:57.541Z,49.70
2018-02-19T10:39:02.470Z,49.70
2018-02-19T10:40:07.386Z,49.70
2018-02-19T10:41:12.190Z,49.60
2018-02-19T10:42:17.161Z,49.70
2018-02-19T10:43:21.920Z,49.70
2018-02-19T10:44:26.711Z,49.70
2018-02-19T10:45:31.467Z,49.70
2018-02-19T10:46:36.452Z,49.70
2018-02-19T10:47:41.446Z,49.70
2018-02-19T10:48:46.270Z,49.70
2018-02-19T10:49:51.157Z,49.70
2018-02-19T10:50:55.924Z,49.70
2018-02-19T10:52:00.869Z,49.70
2018-02-19T10:53:05.904Z,49.70
2018-02-19T10:54:10.750Z,49.80
2018-02-19T10:55:15.648Z,49.70
2018-02-19T10:56:20.475Z,49.80
2018-02-19T10:57:25.280Z,49.80
2018-02-19T10:58:30.187Z,49.80
2018-02-19T10:59:35.094Z,49.80
2018-02-19T11:00:39.924Z,49.80
2018-02-19T11:01:46.139Z,49.80
2018-02-19T11:02:51.072Z,49.70
2018-02-19T11:03:55.900Z,49.80
2018-02-19T11:05:00.830Z,49.80
2018-02-19T11:06:05.576Z,49.80
2018-02-19T11:07:10.286Z,49.80
2018-02-19T11:08:15.019Z,49.80
2018-02-19T11:09:19.778Z,49.80
2018-02-19T11:10:24.612Z,49.80
2018-02-19T11:11:29.568Z,49.80
2018-02-19T11:12:34.326Z,49.80
2018-02-19T11:13:39.238Z,49.80
2018-02-19T11:14:44.214Z,49.80
2018-02-19T11:15:49.020Z,49.80
2018-02-19T11:16:53.803Z,49.80
2018-02-19T11:17:58.591Z,49.80
2018-02-19T11:19:03.432Z,49.80
2018-02-19T11:20:08.150Z,49.90
2018-02-19T11:21:12.873Z,49.90
2018-02-19T11:22:17.783Z,49.90
2018-02-19T11:23:22.507Z,49.90
2018-02-19T11:24:27.400Z,49.80
2018-02-19T11:25:32.114Z,49.80
2018-02-19T11:26:36.860Z,49.80
2018-02-19T11:27:41.596Z,49.70
2018-02-19T11:28:46.454Z,49.80
2018-02-19T11:29:51.347Z,49.80
2018-02-19T11:30:56.215Z,49.70
2018-02-19T11:32:01.096Z,49.70
2018-02-19T11:33:05.971Z,49.70
2018-02-19T11:34:10.682Z,49.60
2018-02-19T11:35:15.449Z,49.60
2018-02-19T11:36:20.256Z,49.60
2018-02-19T11:37:25.188Z,49.60
2018-02-19T11:38:29.970Z,49.50
2018-02-19T11:39:34.826Z,49.60
2018-02-19T11:40:39.559Z,49.60
2018-02-19T11:41:44.340Z,49.60
2018-02-19T11:42:49.739Z,49.60
2018-02-19T11:43:54.691Z,49.60
2018-02-19T11:44:59.670Z,49.60
2018-02-19T11:46:04.464Z,49.60
2018-02-19T11:47:09.176Z,49.60
2018-02-19T11:48:13.876Z,49.60
2018-02-19T11:49:18.633Z,49.60
2018-02-19T11:50:23.583Z,49.50
2018-02-19T11:51:28.311Z,49.60
2018-02-19T11:52:33.068Z,49.60
2018-02-19T11:53:37.837Z,49.60
2018-02-19T11:54:42.769Z,49.70
2018-02-19T11:55:47.487Z,49.70
2018-02-19T11:56:52.234Z,49.70
2018-02-19T11:57:57.181Z,49.70
2018-02-19T11:59:02.057Z,49.70
2018-02-19T12:00:06.821Z,50.40
2018-02-19T12:01:11.771Z,49.70
2018-02-19T12:02:16.581Z,49.80
2018-02-19T12:03:21.437Z,49.80
2018-02-19T12:04:26.293Z,49.90
2018-02-19T12:05:31.069Z,49.90
2018-02-19T12:06:35.840Z,49.80
2018-02-19T12:07:40.684Z,49.90
2018-02-19T12:08:45.644Z,49.80
2018-02-19T12:09:50.529Z,49.90
2018-02-19T12:10:55.286Z,49.90
2018-02-19T12:12:00.138Z,50.00
2018-02-19T12:13:05.028Z,49.90
2018-02-19T12:14:09.916Z,49.90
2018-02-19T12:15:14.688Z,49.90
2018-02-19T12:16:19.411Z,49.90
2018-02-19T12:17:24.356Z,49.90
2018-02-19T12:18:29.179Z,49.90
2018-02-19T12:19:34.041Z,49.90
2018-02-19T12:20:38.994Z,50.00
2018-02-19T12:21:43.840Z,50.00
2018-02-19T12:22:48.613Z,50.10
2018-02-19T12:23:53.569Z,50.00
2018-02-19T12:24:58.313Z,50.00
2018-02-19T12:26:03.074Z,50.00
2018-02-19T12:27:07.921Z,50.00
2018-02-19T12:28:12.712Z,50.00
2018-02-19T12:29:17.597Z,50.00
2018-02-19T12:30:22.557Z,50.00
2018-02-19T12:31:27.379Z,50.00
2018-02-19T12:32:32.118Z,50.00
2018-02-19T12:33:36.921Z,50.00
2018-02-19T12:34:41.647Z,50.00
2018-02-19T12:35:46.529Z,50.00
2018-02-19T12:36:51.349Z,50.00
2018-02-19T12:37:56.222Z,50.00
2018-02-19T12:39:00.938Z,50.10
2018-02-19T12:40:05.681Z,50.00
2018-02-19T12:41:10.507Z,50.00
2018-02-19T12:42:15.356Z,50.00
2018-02-19T12:43:20.051Z,50.00
2018-02-19T12:44:24.923Z,50.10
2018-02-19T12:45:29.829Z,50.20
2018-02-19T12:46:34.678Z,50.00
2018-02-19T12:47:39.572Z,50.00
2018-02-19T12:48:44.328Z,50.00
2018-02-19T12:49:49.217Z,50.00
2018-02-19T12:50:53.974Z,50.00
2018-02-19T12:51:58.810Z,50.00
2018-02-19T12:53:03.684Z,50.00
2018-02-19T12:54:08.412Z,50.00
2018-02-19T12:55:13.169Z,50.00
2018-02-19T12:56:17.927Z,50.10
2018-02-19T12:57:22.657Z,50.10
2018-02-19T12:58:27.503Z,50.20
2018-02-19T12:59:32.434Z,50.20
2018-02-19T13:00:37.233Z,50.30
2018-02-19T13:01:42.092Z,50.30
2018-02-19T13:02:47.088Z,50.20
2018-02-19T13:03:51.887Z,50.10
2018-02-19T13:04:56.725Z,50.30
2018-02-19T13:06:01.467Z,50.10
2018-02-19T13:07:06.228Z,50.00
2018-02-19T13:08:11.165Z,50.00
2018-02-19T13:09:15.908Z,50.10
2018-02-19T13:10:20.621Z,50.20
2018-02-19T13:11:25.417Z,50.30
2018-02-19T13:12:30.190Z,50.30
2018-02-19T13:13:35.059Z,50.10
2018-02-19T13:14:39.964Z,50.10
2018-02-19T13:15:44.885Z,50.30
2018-02-19T13:16:49.662Z,50.30
2018-02-19T13:17:54.480Z,50.20
2018-02-19T13:18:59.257Z,50.20
2018-02-19T13:20:04.190Z,50.20
2018-02-19T13:21:09.108Z,50.30
2018-02-19T13:22:13.901Z,50.30
2018-02-19T13:23:18.734Z,50.40
2018-02-19T13:24:23.633Z,50.30
2018-02-19T13:25:28.630Z,50.40
2018-02-19T13:26:33.513Z,50.30
2018-02-19T13:27:38.449Z,50.40
2018-02-19T13:28:43.132Z,50.50
2018-02-19T13:29:47.952Z,50.50
2018-02-19T13:30:52.850Z,50.50
2018-02-19T13:31:57.700Z,50.50
2018-02-19T13:33:02.680Z,50.60
2018-02-19T13:34:07.660Z,50.50
2018-02-19T13:35:12.536Z,50.50
2018-02-19T13:36:17.386Z,50.60
2018-02-19T13:37:22.217Z,50.50
2018-02-19T13:38:27.016Z,50.50
2018-02-19T13:39:31.854Z,50.50
2018-02-19T13:40:36.780Z,50.60
2018-02-19T13:41:41.536Z,50.60
2018-02-19T13:42:46.275Z,50.60
2018-02-19T13:43:51.011Z,50.60
2018-02-19T13:44:55.809Z,50.60
2018-02-19T13:46:00.615Z,50.60
2018-02-19T13:47:05.428Z,50.70
2018-02-19T13:48:10.173Z,50.80
2018-02-19T13:49:14.935Z,50.80
2018-02-19T13:50:19.711Z,50.70
2018-02-19T13:51:24.458Z,50.70
2018-02-19T13:52:29.267Z,50.70
2018-02-19T13:53:34.153Z,50.80
2018-02-19T13:54:39.074Z,50.80
2018-02-19T13:55:43.838Z,50.80